Time;durP1;ratioP1;P1;durP2;ratioP2;P2;SDS_P1;SDS_P2;PMS_P1;PMS_P2;Temp;Humidity;BMP_temperature;BMP_pressure;BME280_temperature;BME280_humidity;BME280_pressure;Samples;Min_cycle;Max_cycle;Signal;HPM_P1;HPM_P2
2023/08/09 00:08:43;;;;;;;6.20;4.50;;;;;;;13.61;76.99;98427.16;435677;1253;109832;-41
2023/08/09 00:18:50;;;;;;;5.30;4.00;;;;;;;13.60;77.18;98428.01;435707;1253;107137;-41
2023/08/09 00:39:08;;;;;;;10.70;4.30;;;;;;;13.51;77.81;98411.37;435663;1253;107986;-41
2023/08/09 00:49:15;;;;;;;5.10;4.00;;;;;;;13.53;78.04;98419.09;435822;1251;97885;-44
2023/08/09 00:59:22;;;;;;;7.90;3.60;;;;;;;13.48;77.97;98413.67;435595;1251;110621;-42
2023/08/09 01:09:26;;;;;;;5.40;4.60;;;;;;;13.19;78.27;98414.73;435520;1251;108737;-42
2023/08/09 01:19:32;;;;;;;5.70;4.00;;;;;;;13.00;78.58;98420.27;435533;1254;97880;-43
2023/08/09 01:29:39;;;;;;;4.60;3.60;;;;;;;12.95;78.93;98436.02;435617;1253;107266;-42
2023/08/09 01:39:50;;;;;;;4.30;3.80;;;;;;;12.92;79.40;98440.83;435624;1253;97976;-42
2023/08/09 02:00:05;;;;;;;6.80;3.70;;;;;;;13.08;79.85;98440.95;435322;1254;108072;-42
2023/08/09 02:10:10;;;;;;;;;;;;;;;13.22;80.08;98446.42;435408;1255;97957;-41
2023/08/09 02:20:16;;;;;;;7.70;3.60;;;;;;;13.25;80.02;98452.27;435346;1254;109443;-42
2023/08/09 02:40:29;;;;;;;5.30;3.90;;;;;;;13.20;80.31;98439.55;435437;1250;109875;-41
2023/08/09 02:50:37;;;;;;;6.20;3.70;;;;;;;13.15;80.15;98439.70;435257;1254;107868;-42
2023/08/09 03:00:44;;;;;;;4.50;3.20;;;;;;;12.96;80.14;98433.86;435405;1255;96640;-41
2023/08/09 03:10:51;;;;;;;5.10;3.60;;;;;;;12.76;80.43;98434.92;435310;1256;109973;-42
2023/08/09 03:20:58;;;;;;;6.00;3.60;;;;;;;12.84;80.72;98440.21;435145;1254;106960;-42
2023/08/09 03:31:05;;;;;;;5.10;3.80;;;;;;;12.88;80.95;98442.38;435480;1254;97890;-43
2023/08/09 03:41:12;;;;;;;8.90;4.50;;;;;;;12.99;80.94;98442.43;435426;1249;108564;-42
2023/08/09 03:51:16;;;;;;;8.40;3.80;;;;;;;13.03;80.78;98445.63;435226;1256;107156;-41
2023/08/09 04:01:22;;;;;;;6.20;3.70;;;;;;;13.20;80.77;98448.77;435392;1254;97874;-41
2023/08/09 04:11:30;;;;;;;9.40;3.10;;;;;;;13.54;80.94;98443.09;435257;1255;110554;-42
2023/08/09 04:21:36;;;;;;;3.30;2.60;;;;;;;14.60;80.71;98444.52;435442;1249;109509;-42
2023/08/09 04:31:42;;;;;;;5.30;3.60;;;;;;;14.47;80.13;98446.39;435189;1255;97865;-41
2023/08/09 04:41:49;;;;;;;9.50;5.40;;;;;;;14.14;79.92;98447.73;435460;1250;110154;-42
2023/08/09 04:51:56;;;;;;;9.80;4.50;;;;;;;13.87;79.91;98455.47;435338;1254;108157;-42
2023/08/09 05:32:23;;;;;;;5.60;4.20;;;;;;;17.21;79.38;98439.77;435364;1260;97923;-41
2023/08/09 05:52:36;;;;;;;6.80;4.00;;;;;;;18.41;77.08;98450.00;435293;1253;108186;-44
2023/08/09 06:02:45;;;;;;;7.00;3.90;;;;;;;18.53;75.74;98454.89;435285;1255;97807;-43
2023/08/09 06:12:53;;;;;;;4.50;2.90;;;;;;;19.52;74.73;98462.45;435444;1251;111053;-41
2023/08/09 06:23:00;;;;;;;5.00;3.00;;;;;;;19.44;72.66;98462.89;435266;1255;107458;-41
2023/08/09 06:33:05;;;;;;;2.70;1.90;;;;;;;19.93;71.41;98459.50;435254;1251;97429;-41
2023/08/09 06:43:12;;;;;;;3.10;2.20;;;;;;;20.32;70.67;98460.70;435195;1256;107642;-42
2023/08/09 06:53:18;;;;;;;3.20;2.70;;;;;;;20.52;69.14;98460.16;435296;1256;97970;-42
2023/08/09 07:03:24;;;;;;;3.60;2.70;;;;;;;20.41;67.59;98456.67;435683;1254;110397;-42
2023/08/09 07:13:32;;;;;;;6.90;3.10;;;;;;;20.47;65.83;98452.96;435481;1249;108391;-41
2023/08/09 07:23:42;;;;;;;3.60;3.10;;;;;;;20.93;65.39;98454.30;435350;1256;97865;-43
2023/08/09 07:34:03;;;;;;;3.80;3.20;;;;;;;20.99;63.96;98453.23;435499;1254;111208;-41
2023/08/09 07:44:10;;;;;;;3.00;2.50;;;;;;;21.04;64.10;98447.73;435293;1254;109879;-42
2023/08/09 07:54:17;;;;;;;5.60;2.80;;;;;;;21.48;63.10;98454.02;435197;1255;116676;-42
2023/08/09 08:04:24;;;;;;;4.30;3.00;;;;;;;21.46;62.33;98451.67;435318;1250;109585;-42
2023/08/09 08:14:31;;;;;;;7.10;3.00;;;;;;;22.29;62.73;98456.35;435385;1254;96915;-40
2023/08/09 08:24:39;;;;;;;3.10;2.40;;;;;;;23.02;61.93;98456.63;435366;1251;110553;-40
2023/08/09 08:34:47;;;;;;;4.60;2.70;;;;;;;23.25;60.14;98456.31;435373;1251;107549;-40
2023/08/09 08:44:55;;;;;;;7.80;2.50;;;;;;;23.27;59.04;98464.55;435375;1254;97913;-40
2023/08/09 08:55:03;;;;;;;9.40;2.70;;;;;;;22.62;59.24;98466.77;435367;1254;110721;-41
2023/08/09 09:45:36;;;;;;;3.40;1.40;;;;;;;21.11;59.96;98471.65;435222;1251;107221;-41
2023/08/09 10:05:53;;;;;;;3.10;2.10;;;;;;;21.30;59.66;98473.40;435397;1251;107566;-42
2023/08/09 10:16:03;;;;;;;5.60;1.90;;;;;;;20.66;59.79;98477.56;435328;1251;97903;-40
2023/08/09 10:26:11;;;;;;;2.10;1.90;;;;;;;19.65;60.44;98501.94;435307;1263;109691;-42
2023/08/09 10:36:31;;;;;;;5.10;2.30;;;;;;;19.11;62.29;98500.56;435425;1253;107673;-42
2023/08/09 10:46:39;;;;;;;2.80;2.20;;;;;;;19.12;63.35;98495.04;435505;1251;97886;-41
2023/08/09 10:56:46;;;;;;;4.10;2.50;;;;;;;19.21;64.49;98488.36;435384;1251;109826;-41
2023/08/09 11:06:57;;;;;;;5.70;2.30;;;;;;;19.08;65.10;98484.85;435394;1254;108759;-42
2023/08/09 11:17:04;;;;;;;5.60;2.80;;;;;;;18.91;65.86;98482.44;435293;1254;97853;-42
2023/08/09 11:27:13;;;;;;;3.80;2.40;;;;;;;18.76;66.47;98468.32;435378;1249;110665;-41
2023/08/09 11:37:21;;;;;;;3.10;2.70;;;;;;;18.68;67.26;98451.44;435319;1254;107820;-42
2023/08/09 11:47:29;;;;;;;4.20;1.80;;;;;;;18.60;67.89;98442.99;435333;1254;98012;-42
2023/08/09 11:57:37;;;;;;;2.80;2.00;;;;;;;18.79;68.11;98436.08;435306;1254;108733;-42
2023/08/09 12:07:44;;;;;;;4.20;2.50;;;;;;;19.41;67.69;98430.45;435461;1251;96705;-42
2023/08/09 12:17:52;;;;;;;5.90;2.30;;;;;;;19.00;67.33;98431.58;435418;1250;110651;-42
2023/08/09 12:28:00;;;;;;;3.10;2.30;;;;;;;18.90;67.55;98426.52;435214;1253;354170;-42
2023/08/09 12:38:09;;;;;;;2.80;2.10;;;;;;;18.90;67.65;98413.80;435330;1250;97465;-41
2023/08/09 12:48:16;;;;;;;2.90;2.50;;;;;;;18.17;68.81;98423.23;435196;1254;110310;-44
2023/08/09 12:58:22;;;;;;;2.80;1.90;;;;;;;18.07;69.32;98425.20;435239;1250;107283;-41
2023/08/09 13:18:36;;;;;;;3.00;2.10;;;;;;;18.97;69.34;98427.97;435332;1254;110650;-43
2023/08/09 13:28:42;;;;;;;8.20;2.30;;;;;;;19.13;68.91;98422.16;435318;1250;107499;-41
2023/08/09 13:38:49;;;;;;;2.90;2.10;;;;;;;19.09;68.66;98427.42;435262;1251;97911;-42
2023/08/09 13:48:57;;;;;;;2.40;2.20;;;;;;;19.24;69.01;98427.85;435337;1249;108362;-43
2023/08/09 13:59:08;;;;;;;2.70;2.10;;;;;;;19.49;69.08;98436.70;435271;1250;97555;-42
2023/08/09 14:09:16;;;;;;;;;;;;;;;19.54;68.95;98429.98;435335;1253;109475;-43
2023/08/09 14:19:28;;;;;;;2.20;1.90;;;;;;;19.19;68.94;98432.15;435378;1251;108818;-41
2023/08/09 14:49:50;;;;;;;2.30;2.10;;;;;;;19.24;69.81;98444.58;435331;1249;98191;-41
2023/08/09 14:59:57;;;;;;;3.40;1.90;;;;;;;19.62;69.99;98440.70;435309;1254;109350;-41
2023/08/09 15:40:23;;;;;;;21.30;11.80;;;;;;;19.51;69.49;98457.42;435439;1250;97504;-41
2023/08/09 15:50:29;;;;;;;126.20;76.80;;;;;;;19.34;69.76;98456.11;435355;1250;109915;-42
2023/08/09 16:11:03;;;;;;;9.20;4.40;;;;;;;18.78;70.24;98482.27;435272;1250;97466;-41
2023/08/09 16:21:17;;;;;;;4.50;1.20;;;;;;;17.77;70.81;98543.67;435393;1250;107402;-41
2023/08/09 16:31:34;;;;;;;2.90;1.10;;;;;;;16.08;71.63;98557.61;435379;1251;97523;-42
2023/08/09 16:41:42;;;;;;;2.70;0.90;;;;;;;15.54;72.48;98558.73;435323;1258;110224;-42
2023/08/09 16:51:49;;;;;;;6.20;2.30;;;;;;;15.47;73.76;98566.80;435266;1254;108654;-41
2023/08/09 17:01:55;;;;;;;6.50;2.30;;;;;;;15.70;74.40;98567.58;435340;1250;97861;-42
2023/08/09 17:12:04;;;;;;;15.60;2.70;;;;;;;15.77;74.88;98580.58;435471;1255;108031;-41
2023/08/09 17:22:11;;;;;;;5.80;3.00;;;;;;;15.79;75.45;98605.38;435280;1254;97998;-42
2023/08/09 17:42:29;;;;;;;12.60;2.70;;;;;;;15.51;76.10;98626.98;435320;1254;108801;-42
2023/08/09 18:02:44;;;;;;;9.30;3.30;;;;;;;15.32;76.75;98646.18;435320;1254;108069;-42
2023/08/09 18:22:57;;;;;;;7.10;4.70;;;;;;;15.02;77.34;98674.36;435279;1249;111513;-41
2023/08/09 18:33:04;;;;;;;7.80;3.70;;;;;;;14.75;77.39;98693.46;435164;1254;107151;-42
2023/08/09 18:43:11;;;;;;;10.00;3.60;;;;;;;14.50;77.73;98708.43;435500;1250;96641;-45
2023/08/09 19:03:29;;;;;;;8.40;4.40;;;;;;;14.19;78.03;98727.35;435278;1254;109342;-42
2023/08/09 19:13:38;;;;;;;5.40;4.50;;;;;;;14.06;78.46;98736.05;435313;1254;97950;-42
2023/08/09 19:23:45;;;;;;;;;;;;;;;13.81;78.45;98748.21;435323;1255;110151;-42
2023/08/09 19:33:56;;;;;;;8.20;5.40;;;;;;;13.57;78.61;98763.20;435564;1254;107824;-41
2023/08/09 19:44:09;;;;;;;20.30;14.50;;;;;;;13.52;79.00;98775.51;435250;1250;97983;-41
2023/08/09 19:54:34;;;;;;;19.00;9.60;;;;;;;13.35;79.15;98780.43;435355;1253;109978;-41
2023/08/09 20:24:52;;;;;;;10.40;8.10;;;;;;;12.81;79.61;98809.02;435165;1254;108036;-42
2023/08/09 20:34:57;;;;;;;10.50;7.00;;;;;;;12.69;79.85;98811.81;435130;1255;97961;-43
2023/08/09 20:45:05;;;;;;;10.00;6.70;;;;;;;12.65;80.05;98816.89;435309;1255;111590;-42
2023/08/09 20:55:12;;;;;;;6.60;5.80;;;;;;;12.60;80.19;98828.33;435236;1254;108014;-42
2023/08/09 21:05:19;;;;;;;8.20;7.40;;;;;;;12.51;80.35;98832.61;435264;1254;97876;-43
2023/08/09 21:15:25;;;;;;;10.10;8.50;;;;;;;12.29;80.45;98844.81;435570;1250;110784;-42
2023/08/09 21:25:35;;;;;;;17.80;8.30;;;;;;;12.16;80.60;98851.23;435237;1255;107918;-42
2023/08/09 21:35:45;;;;;;;13.30;7.40;;;;;;;12.08;80.63;98864.86;435307;1254;96621;-43
2023/08/09 21:55:59;;;;;;;8.60;7.70;;;;;;;11.94;80.93;98872.25;435232;1264;107906;-42
2023/08/09 22:06:06;;;;;;;10.00;7.40;;;;;;;11.99;81.32;98876.36;435305;1255;97159;-42
2023/08/09 22:16:13;;;;;;;7.70;6.40;;;;;;;11.88;81.25;98889.65;435328;1250;109571;-42
2023/08/09 22:26:24;;;;;;;6.80;5.90;;;;;;;11.80;81.47;98891.32;435357;1250;96651;-41
2023/08/09 22:36:31;;;;;;;7.60;4.50;;;;;;;11.76;81.63;98890.77;435237;1266;111612;-42
2023/08/09 22:46:37;;;;;;;5.60;3.60;;;;;;;11.80;81.86;98888.17;435178;1271;106820;-42
2023/08/09 22:56:44;;;;;;;4.00;3.10;;;;;;;11.80;81.97;98892.52;435166;1249;98523;-41
2023/08/09 23:06:51;;;;;;;4.70;4.20;;;;;;;11.81;82.12;98900.19;435035;1254;107193;-41
2023/08/09 23:16:57;;;;;;;5.80;3.50;;;;;;;11.79;82.33;98892.35;435329;1250;97899;-42
2023/08/09 23:27:04;;;;;;;3.10;2.90;;;;;;;11.72;82.25;98900.70;435287;1255;111681;-42
2023/08/09 23:37:11;;;;;;;5.30;3.60;;;;;;;11.66;82.26;98901.32;435317;1255;107287;-43
2023/08/09 23:47:18;;;;;;;4.20;3.60;;;;;;;11.60;82.30;98903.30;435309;1256;98490;-41
2023/08/09 23:57:25;;;;;;;6.50;4.70;;;;;;;11.55;82.54;98904.85;435469;1253;108706;-41
